Time;durP1;ratioP1;P1;durP2;ratioP2;P2;SDS_P1;SDS_P2;PMS_P1;PMS_P2;Temp;Humidity;BMP_temperature;BMP_pressure;BME280_temperature;BME280_humidity;BME280_pressure;Samples;Min_cycle;Max_cycle;Signal;HPM_P1;HPM_P2
2023/05/01 00:00:54;;;;;;;6.22;4.10;;;13.90;51.40;;;;;;5064020;28;20013;-76
2023/05/01 00:03:20;;;;;;;4.95;3.40;;;13.90;51.10;;;;;;5059836;28;20024;-76
2023/05/01 00:05:46;;;;;;;5.03;3.47;;;14.00;51.00;;;;;;5062524;28;20031;-76
2023/05/01 00:08:12;;;;;;;8.73;3.85;;;14.00;50.80;;;;;;5059257;28;20029;-76
2023/05/01 00:10:38;;;;;;;4.97;3.88;;;14.00;50.80;;;;;;5063001;28;20036;-76
2023/05/01 00:13:04;;;;;;;5.60;3.90;;;14.00;50.70;;;;;;5061269;28;20128;-77
2023/05/01 00:15:31;;;;;;;9.40;4.40;;;14.00;50.50;;;;;;5060593;28;20023;-77
2023/05/01 00:17:57;;;;;;;10.93;4.13;;;14.10;50.40;;;;;;5059607;28;20032;-77
2023/05/01 00:20:29;;;;;;;7.75;4.45;;;14.10;50.40;;;;;;5069611;28;20029;-76
2023/05/01 00:22:56;;;;;;;14.25;5.30;;;14.20;50.30;;;;;;5072332;28;20031;-77
2023/05/01 00:25:22;;;;;;;9.18;3.95;;;14.20;50.20;;;;;;5070984;28;20055;-76
2023/05/01 00:27:48;;;;;;;8.70;4.40;;;14.20;50.10;;;;;;5072156;28;20024;-77
2023/05/01 00:30:14;;;;;;;6.75;4.25;;;14.30;50.00;;;;;;5071089;28;20408;-76
2023/05/01 00:32:40;;;;;;;15.07;5.40;;;14.30;49.90;;;;;;5072183;28;20025;-77
2023/05/01 00:35:07;;;;;;;8.77;5.13;;;14.30;49.80;;;;;;5070188;28;20024;-77
2023/05/01 00:37:32;;;;;;;6.72;4.78;;;14.30;49.70;;;;;;5072445;28;20447;-77
2023/05/01 00:39:58;;;;;;;6.30;4.38;;;14.40;49.70;;;;;;5072119;28;20127;-77
2023/05/01 00:42:24;;;;;;;8.70;4.68;;;14.40;49.60;;;;;;5072172;28;20021;-76
2023/05/01 00:44:50;;;;;;;6.07;4.00;;;14.40;49.70;;;;;;5070823;28;20367;-77
2023/05/01 00:47:16;;;;;;;6.28;4.45;;;14.40;49.50;;;;;;5071183;28;20459;-77
2023/05/01 00:49:42;;;;;;;7.55;5.15;;;14.40;49.60;;;;;;5056122;28;20394;-77
2023/05/01 00:52:11;;;;;;;6.45;4.65;;;14.40;49.50;;;;;;5056178;28;20104;-76
2023/05/01 00:54:37;;;;;;;8.40;5.32;;;14.30;49.40;;;;;;5056339;28;20024;-77
2023/05/01 00:57:03;;;;;;;8.20;4.70;;;14.40;49.50;;;;;;5056766;28;20083;-77
2023/05/01 00:59:29;;;;;;;6.40;4.53;;;14.30;49.50;;;;;;5056990;28;20032;-77
2023/05/01 01:01:55;;;;;;;8.80;4.72;;;14.30;50.00;;;;;;5055740;28;20387;-76
2023/05/01 01:04:21;;;;;;;9.68;5.25;;;14.30;49.50;;;;;;5057193;28;20093;-77
2023/05/01 01:07:02;;;;;;;7.82;4.80;;;14.30;49.50;;;;;;5056904;28;20025;-76
2023/05/01 01:09:42;;;;;;;11.40;5.90;;;14.30;49.50;;;;;;5057143;28;20021;-77
2023/05/01 01:12:16;;;;;;;9.32;4.72;;;14.30;49.60;;;;;;5056801;28;20111;-77
2023/05/01 01:15:09;;;;;;;8.60;5.63;;;14.20;49.60;;;;;;5056786;28;20083;-77
2023/05/01 01:17:58;;;;;;;9.88;5.45;;;14.20;49.60;;;;;;5056622;28;20025;-77
2023/05/01 01:20:45;;;;;;;6.70;4.47;;;14.20;49.60;;;;;;5056503;28;20116;-77
2023/05/01 01:23:56;;;;;;;7.68;4.57;;;14.20;49.60;;;;;;5056430;28;20052;-77
2023/05/01 01:26:49;;;;;;;7.72;4.40;;;14.10;49.50;;;;;;5051364;28;20052;-77
2023/05/01 01:29:39;;;;;;;6.47;4.57;;;14.10;49.40;;;;;;5075207;28;20020;-77
2023/05/01 01:32:36;;;;;;;5.32;4.05;;;14.10;49.40;;;;;;5076518;28;20021;-76
2023/05/01 01:35:09;;;;;;;6.35;4.05;;;14.10;49.10;;;;;;5076488;28;20490;-77
2023/05/01 01:37:48;;;;;;;7.72;4.18;;;14.10;49.00;;;;;;5075431;28;20381;-76
2023/05/01 01:40:21;;;;;;;7.20;4.22;;;14.10;49.00;;;;;;5076180;28;20032;-77
2023/05/01 01:42:56;;;;;;;8.32;3.75;;;14.00;48.80;;;;;;5076266;28;20024;-78
2023/05/01 01:45:29;;;;;;;6.03;3.95;;;14.00;48.70;;;;;;5076246;28;20047;-77
2023/05/01 01:47:56;;;;;;;10.70;5.03;;;14.00;48.60;;;;;;5069640;28;20409;-77
2023/05/01 01:50:25;;;;;;;8.80;3.88;;;14.00;48.70;;;;;;5054917;28;20033;-77
2023/05/01 01:52:53;;;;;;;7.82;3.97;;;14.00;48.60;;;;;;5056051;28;20105;-77
2023/05/01 01:55:24;;;;;;;10.40;4.22;;;13.90;48.60;;;;;;5060045;28;20054;-76
2023/05/01 01:57:51;;;;;;;6.22;3.30;;;13.90;48.60;;;;;;5076305;28;20054;-76
2023/05/01 02:00:17;;;;;;;8.07;3.55;;;13.90;48.40;;;;;;5075250;28;20411;-76
2023/05/01 02:02:45;;;;;;;5.85;3.35;;;13.90;48.20;;;;;;5074614;28;20033;-77
2023/05/01 02:05:14;;;;;;;8.18;3.85;;;13.90;48.30;;;;;;5075911;28;20195;-77
2023/05/01 02:07:41;;;;;;;6.43;3.65;;;13.90;48.30;;;;;;5074706;28;20359;-77
2023/05/01 02:10:13;;;;;;;4.85;3.50;;;13.90;48.20;;;;;;5075798;28;20485;-76
2023/05/01 02:12:43;;;;;;;6.05;3.17;;;13.90;48.60;;;;;;5076085;28;20496;-78
2023/05/01 02:15:09;;;;;;;9.38;3.13;;;13.90;47.90;;;;;;5075700;28;20477;-78
2023/05/01 02:17:38;;;;;;;6.32;3.13;;;13.80;47.90;;;;;;5071789;28;20509;-77
2023/05/01 02:20:06;;;;;;;4.75;2.90;;;13.90;47.90;;;;;;5054253;28;20032;-76
2023/05/01 02:22:32;;;;;;;5.32;2.88;;;13.80;47.80;;;;;;5055583;28;20025;-77
2023/05/01 02:25:00;;;;;;;5.00;3.25;;;13.80;47.90;;;;;;5074813;28;20055;-77
2023/05/01 02:27:32;;;;;;;8.73;3.60;;;13.80;48.00;;;;;;5074272;28;20021;-77
2023/05/01 02:29:58;;;;;;;5.30;3.15;;;13.80;48.00;;;;;;5075500;28;20027;-77
2023/05/01 02:32:25;;;;;;;5.72;3.22;;;13.80;47.80;;;;;;5075186;28;20035;-77
2023/05/01 02:34:51;;;;;;;7.72;3.50;;;13.80;47.80;;;;;;5074088;28;20039;-76
2023/05/01 02:37:16;;;;;;;9.20;3.55;;;13.80;47.90;;;;;;5073968;28;20478;-77
2023/05/01 02:39:42;;;;;;;4.65;3.58;;;13.70;47.80;;;;;;5073878;28;20024;-76
2023/05/01 02:42:10;;;;;;;8.88;2.78;;;13.80;47.90;;;;;;5073912;28;20020;-76
2023/05/01 02:44:49;;;;;;;5.50;3.00;;;13.80;47.90;;;;;;5075143;28;20035;-77
2023/05/01 02:47:19;;;;;;;8.60;3.28;;;13.70;47.90;;;;;;5070947;28;20044;-77
2023/05/01 02:49:47;;;;;;;6.13;3.17;;;13.70;47.80;;;;;;5054949;28;20108;-77
2023/05/01 02:52:17;;;;;;;7.55;3.10;;;13.70;47.80;;;;;;5054972;28;20078;-76
2023/05/01 02:54:44;;;;;;;5.15;3.28;;;13.70;47.80;;;;;;5054935;28;20041;-77
2023/05/01 02:57:10;;;;;;;5.63;3.13;;;13.70;47.60;;;;;;5054705;28;20156;-77
2023/05/01 02:59:36;;;;;;;7.07;3.10;;;13.70;47.60;;;;;;5053435;28;20025;-77
2023/05/01 03:02:02;;;;;;;7.47;3.58;;;13.70;47.40;;;;;;5054719;28;20021;-77
2023/05/01 03:04:28;;;;;;;5.65;2.85;;;13.70;47.30;;;;;;5054746;28;20021;-77
2023/05/01 03:06:54;;;;;;;8.23;3.50;;;13.70;47.30;;;;;;5054862;28;20024;-78
2023/05/01 03:09:21;;;;;;;7.47;3.42;;;13.70;47.30;;;;;;5054565;28;20103;-78
2023/05/01 03:11:47;;;;;;;4.28;2.65;;;13.70;47.10;;;;;;5054452;28;20029;-77
2023/05/01 03:14:13;;;;;;;6.88;3.00;;;13.60;47.10;;;;;;5054456;28;20025;-78
2023/05/01 03:16:39;;;;;;;7.57;3.30;;;13.60;47.00;;;;;;5054517;28;20027;-77
2023/05/01 03:19:06;;;;;;;4.05;2.72;;;13.60;47.00;;;;;;5052928;28;20025;-76
2023/05/01 03:21:32;;;;;;;18.10;3.53;;;13.60;46.80;;;;;;5056350;28;20377;-77
2023/05/01 03:23:58;;;;;;;6.38;3.88;;;13.60;47.00;;;;;;5074281;28;20428;-77
2023/05/01 03:26:25;;;;;;;7.55;2.97;;;13.60;47.10;;;;;;5074330;28;20025;-76
2023/05/01 03:28:51;;;;;;;5.88;2.60;;;13.60;47.20;;;;;;5074235;28;20513;-77
2023/05/01 03:31:16;;;;;;;8.88;3.10;;;13.60;47.20;;;;;;5074497;28;20024;-77
2023/05/01 03:33:42;;;;;;;5.38;2.95;;;13.60;47.10;;;;;;5074105;28;20028;-77
2023/05/01 03:36:11;;;;;;;5.90;2.90;;;13.60;47.00;;;;;;5072859;28;20036;-76
2023/05/01 03:38:37;;;;;;;5.47;2.65;;;13.60;47.00;;;;;;5073945;28;20036;-77
2023/05/01 03:41:04;;;;;;;8.93;3.50;;;13.60;47.00;;;;;;5074162;28;20130;-76
2023/05/01 03:43:30;;;;;;;6.70;2.88;;;13.60;47.00;;;;;;5073996;28;20022;-76
2023/05/01 03:45:57;;;;;;;6.72;3.13;;;13.60;46.80;;;;;;5074118;28;20070;-78
2023/05/01 03:48:23;;;;;;;8.90;3.08;;;13.60;46.50;;;;;;5060748;28;20103;-77
2023/05/01 03:50:52;;;;;;;10.30;2.97;;;13.50;46.50;;;;;;5053966;28;20103;-77
2023/05/01 03:53:18;;;;;;;5.90;3.05;;;13.50;46.20;;;;;;5054273;28;20025;-77
2023/05/01 03:55:44;;;;;;;7.18;3.15;;;13.60;46.30;;;;;;5053958;28;20382;-77
2023/05/01 03:58:10;;;;;;;5.88;3.15;;;13.60;46.30;;;;;;5054452;28;20104;-76
2023/05/01 04:00:36;;;;;;;5.22;2.85;;;13.50;46.20;;;;;;5054128;28;20347;-76
2023/05/01 04:03:03;;;;;;;8.82;3.15;;;13.60;46.20;;;;;;5053682;28;20486;-78
2023/05/01 04:05:29;;;;;;;8.43;3.22;;;13.60;46.40;;;;;;5053714;28;20383;-77
2023/05/01 04:07:55;;;;;;;8.00;3.00;;;13.60;46.30;;;;;;5053655;28;20032;-76
2023/05/01 04:10:22;;;;;;;10.25;2.97;;;13.60;46.00;;;;;;5053650;28;20040;-77
2023/05/01 04:12:47;;;;;;;4.75;2.83;;;13.60;45.90;;;;;;5053636;28;20029;-77
2023/05/01 04:15:13;;;;;;;5.03;2.70;;;13.60;45.80;;;;;;5052232;28;20075;-77
2023/05/01 04:17:39;;;;;;;5.97;3.08;;;13.70;45.80;;;;;;5053342;28;20096;-77
2023/05/01 04:20:05;;;;;;;9.05;2.83;;;13.70;45.70;;;;;;5055480;28;20029;-77
2023/05/01 04:22:32;;;;;;;7.72;3.08;;;13.70;45.40;;;;;;5071670;28;20481;-77
2023/05/01 04:24:58;;;;;;;8.05;2.40;;;13.70;45.30;;;;;;5066343;28;20490;-77
2023/05/01 04:27:24;;;;;;;9.73;3.58;;;13.70;45.10;;;;;;5071311;28;20021;-76
2023/05/01 04:29:50;;;;;;;6.07;2.95;;;13.80;45.10;;;;;;5073386;28;20482;-77
2023/05/01 04:32:16;;;;;;;7.55;3.70;;;13.80;45.40;;;;;;5073315;28;20024;-77
2023/05/01 04:34:45;;;;;;;6.80;2.42;;;13.80;45.00;;;;;;5072325;28;20082;-77
2023/05/01 04:37:11;;;;;;;3.78;2.20;;;13.80;44.80;;;;;;5069402;28;20029;-77
2023/05/01 04:39:37;;;;;;;7.00;2.65;;;13.90;44.70;;;;;;5072203;28;20024;-78
2023/05/01 04:42:03;;;;;;;7.38;2.78;;;13.90;44.60;;;;;;5057819;28;20025;-78
2023/05/01 04:44:32;;;;;;;10.32;3.33;;;14.00;44.60;;;;;;5072962;28;20028;-78
2023/05/01 04:47:02;;;;;;;4.22;2.33;;;14.00;44.50;;;;;;5070782;28;20013;-77
2023/05/01 04:49:28;;;;;;;11.93;2.70;;;14.10;44.50;;;;;;5053905;28;20025;-77
2023/05/01 04:51:55;;;;;;;7.97;2.78;;;14.10;44.50;;;;;;5064857;28;20032;-79
2023/05/01 04:54:21;;;;;;;8.00;2.90;;;14.10;44.20;;;;;;5071540;28;20149;-76
2023/05/01 04:56:47;;;;;;;9.00;2.67;;;14.20;44.30;;;;;;5073120;28;20074;-76
2023/05/01 04:59:13;;;;;;;9.65;3.13;;;14.20;44.10;;;;;;5071712;28;20024;-77
2023/05/01 05:01:40;;;;;;;5.70;2.95;;;14.20;43.60;;;;;;5058040;28;20072;-78
2023/05/01 05:04:06;;;;;;;10.82;2.88;;;14.30;43.70;;;;;;5051785;28;20200;-76
2023/05/01 05:06:32;;;;;;;7.93;2.55;;;14.30;43.60;;;;;;5052991;28;20021;-77
2023/05/01 05:08:58;;;;;;;5.47;2.70;;;14.40;43.50;;;;;;5053103;28;20433;-77
2023/05/01 05:11:25;;;;;;;6.20;2.60;;;14.40;43.40;;;;;;5052918;28;20071;-77
2023/05/01 05:13:51;;;;;;;8.43;2.33;;;14.40;43.40;;;;;;5052905;28;20501;-76
2023/05/01 05:16:20;;;;;;;7.22;2.88;;;14.50;43.30;;;;;;5060700;28;20056;-76
2023/05/01 05:18:45;;;;;;;6.05;2.67;;;14.50;43.20;;;;;;5070890;28;20037;-77
2023/05/01 05:21:11;;;;;;;5.53;2.35;;;14.60;43.10;;;;;;5072893;28;20039;-77
2023/05/01 05:23:37;;;;;;;7.85;2.08;;;14.60;42.90;;;;;;5072364;28;20060;-77
2023/05/01 05:26:04;;;;;;;4.75;2.60;;;14.60;42.80;;;;;;5071251;28;20467;-76
2023/05/01 05:28:30;;;;;;;8.63;2.70;;;14.60;42.70;;;;;;5072781;28;20465;-76
2023/05/01 05:30:59;;;;;;;8.57;2.55;;;14.70;42.70;;;;;;5071015;28;20028;-76
2023/05/01 05:33:26;;;;;;;5.57;2.33;;;14.70;43.00;;;;;;5072675;28;20025;-77
2023/05/01 05:35:52;;;;;;;3.83;2.13;;;14.80;43.00;;;;;;5073077;28;20032;-77
2023/05/01 05:38:18;;;;;;;8.98;2.58;;;14.90;42.90;;;;;;5068432;28;20074;-78
2023/05/01 05:40:45;;;;;;;4.50;2.28;;;14.90;42.90;;;;;;5054969;28;20032;-77
2023/05/01 05:43:11;;;;;;;5.63;2.70;;;14.90;42.80;;;;;;5062382;28;20158;-78
2023/05/01 05:45:37;;;;;;;5.18;2.58;;;15.00;42.80;;;;;;5075223;28;20027;-77
2023/05/01 05:48:04;;;;;;;7.50;2.60;;;15.00;42.80;;;;;;5064105;28;20029;-78
2023/05/01 05:50:29;;;;;;;5.70;2.38;;;15.10;42.60;;;;;;5054925;28;20101;-78
2023/05/01 05:52:55;;;;;;;6.65;2.60;;;15.10;42.70;;;;;;5071644;28;20053;-77
2023/05/01 05:55:21;;;;;;;9.75;3.35;;;15.10;42.50;;;;;;5054776;28;20186;-78
2023/05/01 05:57:47;;;;;;;8.20;2.85;;;15.10;42.50;;;;;;5060914;28;20029;-78
2023/05/01 06:00:14;;;;;;;10.48;2.97;;;15.20;42.50;;;;;;5064940;28;20025;-77
2023/05/01 06:02:40;;;;;;;4.78;2.67;;;15.30;42.40;;;;;;5074649;28;20021;-77
2023/05/01 06:05:07;;;;;;;3.13;1.90;;;15.30;42.60;;;;;;5058660;28;20023;-76
2023/05/01 06:07:33;;;;;;;4.70;2.53;;;15.40;42.60;;;;;;5057352;28;20485;-77
2023/05/01 06:10:03;;;;;;;6.22;2.60;;;15.50;42.30;;;;;;5061247;28;20383;-78
2023/05/01 06:12:30;;;;;;;6.80;2.55;;;15.50;42.10;;;;;;5075812;28;20379;-77
2023/05/01 06:14:57;;;;;;;6.78;2.33;;;15.60;41.90;;;;;;5066152;28;20013;-78
2023/05/01 06:17:23;;;;;;;4.47;2.55;;;15.70;41.90;;;;;;5066387;28;20036;-77
2023/05/01 06:19:52;;;;;;;7.40;2.17;;;15.80;41.70;;;;;;5066380;28;20025;-78
2023/05/01 06:22:18;;;;;;;4.88;2.47;;;15.90;41.70;;;;;;5054267;28;20036;-77
2023/05/01 06:24:45;;;;;;;6.18;2.50;;;15.90;41.20;;;;;;5073431;28;20120;-77
2023/05/01 06:27:11;;;;;;;4.03;2.35;;;16.00;41.00;;;;;;5075341;28;20027;-78
2023/05/01 06:29:37;;;;;;;5.60;2.53;;;16.10;41.20;;;;;;5075490;28;20024;-77
2023/05/01 06:32:03;;;;;;;6.00;2.50;;;16.20;41.10;;;;;;5073886;28;20032;-78
2023/05/01 06:34:30;;;;;;;3.20;1.80;;;16.30;41.10;;;;;;5075176;28;20021;-78
2023/05/01 06:36:55;;;;;;;3.40;2.00;;;16.40;40.50;;;;;;5064429;28;20029;-77
2023/05/01 06:39:21;;;;;;;7.10;2.67;;;16.50;40.90;;;;;;5056019;28;20047;-78
2023/05/01 06:41:47;;;;;;;3.08;1.90;;;16.60;40.10;;;;;;5075107;28;20074;-77
2023/05/01 06:44:13;;;;;;;10.10;2.88;;;16.70;40.10;;;;;;5073792;28;20021;-77
2023/05/01 06:46:39;;;;;;;4.53;2.55;;;16.80;39.40;;;;;;5073665;28;20466;-77
2023/05/01 06:49:05;;;;;;;5.88;2.83;;;16.90;39.10;;;;;;5057036;28;20040;-76
2023/05/01 06:51:31;;;;;;;4.97;1.70;;;16.90;39.10;;;;;;5055013;28;20032;-77
2023/05/01 06:53:57;;;;;;;6.78;2.70;;;17.10;39.70;;;;;;5053684;28;20033;-79
2023/05/01 06:56:23;;;;;;;8.27;2.83;;;17.20;39.10;;;;;;5054510;28;20091;-77
2023/05/01 06:58:49;;;;;;;6.32;2.63;;;17.30;38.90;;;;;;5054942;28;20036;-77
2023/05/01 07:01:16;;;;;;;7.38;2.50;;;17.40;38.00;;;;;;5054793;28;20029;-77
2023/05/01 07:03:42;;;;;;;4.45;2.55;;;17.50;38.50;;;;;;5054603;28;20116;-79
2023/05/01 07:06:08;;;;;;;4.93;2.10;;;17.60;37.70;;;;;;5054609;28;20072;-76
2023/05/01 07:08:34;;;;;;;4.53;2.33;;;17.70;38.00;;;;;;5053252;28;20021;-76
2023/05/01 07:11:00;;;;;;;7.72;2.95;;;17.80;37.10;;;;;;5053176;28;20040;-76
2023/05/01 07:13:26;;;;;;;5.72;2.33;;;17.80;36.30;;;;;;5054548;28;20072;-76
2023/05/01 07:15:52;;;;;;;6.85;2.38;;;17.90;36.80;;;;;;5068397;28;20448;-76
2023/05/01 07:18:18;;;;;;;5.15;2.10;;;18.00;37.00;;;;;;5072149;28;20492;-78
2023/05/01 07:20:44;;;;;;;5.80;2.53;;;18.20;37.80;;;;;;5072862;28;20033;-77
2023/05/01 07:23:10;;;;;;;6.13;3.15;;;18.30;37.60;;;;;;5074326;28;20032;-77
2023/05/01 07:25:43;;;;;;;3.75;2.50;;;18.50;37.50;;;;;;5074179;28;20040;-77
2023/05/01 07:28:09;;;;;;;5.03;2.53;;;18.60;37.80;;;;;;5070318;28;20078;-77
2023/05/01 07:30:36;;;;;;;11.88;5.20;;;18.70;36.80;;;;;;5062553;28;20103;-76
2023/05/01 07:33:04;;;;;;;14.38;5.45;;;18.80;36.00;;;;;;5063696;28;20044;-76
2023/05/01 07:35:31;;;;;;;8.88;2.92;;;18.90;36.10;;;;;;5052481;28;20021;-77
2023/05/01 07:37:57;;;;;;;5.00;2.55;;;19.00;35.40;;;;;;5053705;28;20021;-76
2023/05/01 07:40:23;;;;;;;4.10;1.95;;;19.00;35.50;;;;;;5053857;28;20036;-77
2023/05/01 07:42:49;;;;;;;4.85;3.00;;;19.10;36.20;;;;;;5055283;28;20434;-77
2023/05/01 07:45:15;;;;;;;5.63;2.58;;;19.20;35.90;;;;;;5061189;28;20027;-77
2023/05/01 07:47:41;;;;;;;9.95;3.30;;;19.20;35.10;;;;;;5062272;28;20058;-77
2023/05/01 07:50:11;;;;;;;7.03;3.60;;;19.20;35.20;;;;;;5062954;28;20022;-79
2023/05/01 07:52:37;;;;;;;7.47;4.40;;;19.30;36.00;;;;;;5063313;28;20066;-77
2023/05/01 07:55:04;;;;;;;5.95;3.35;;;19.30;36.20;;;;;;5060849;28;20028;-77
2023/05/01 07:57:32;;;;;;;9.55;4.43;;;19.40;35.80;;;;;;5062533;28;20021;-76
2023/05/01 07:59:58;;;;;;;5.28;3.75;;;19.40;35.90;;;;;;5061388;28;20020;-76
2023/05/01 08:02:25;;;;;;;6.85;2.50;;;19.50;35.60;;;;;;5060621;28;20016;-76
2023/05/01 08:04:51;;;;;;;4.60;2.63;;;19.50;35.70;;;;;;5061720;28;20032;-77
2023/05/01 08:07:17;;;;;;;5.18;3.03;;;19.50;35.80;;;;;;5063050;28;20382;-76
2023/05/01 08:09:43;;;;;;;8.05;4.40;;;19.60;36.00;;;;;;5060769;28;20035;-76
2023/05/01 08:12:09;;;;;;;3.72;2.60;;;19.60;36.00;;;;;;5058728;28;20104;-78
2023/05/01 08:14:34;;;;;;;10.73;4.22;;;19.60;35.40;;;;;;5062326;28;20486;-77
2023/05/01 08:17:01;;;;;;;10.77;5.75;;;19.60;35.30;;;;;;5061647;28;20538;-77
2023/05/01 08:19:27;;;;;;;4.88;3.28;;;19.60;35.50;;;;;;5060410;28;20041;-77
2023/05/01 08:21:53;;;;;;;7.13;4.20;;;19.70;35.50;;;;;;5063223;28;20477;-77
2023/05/01 08:24:19;;;;;;;3.45;2.53;;;19.60;35.70;;;;;;5062328;28;20072;-77
2023/05/01 08:26:45;;;;;;;7.75;4.30;;;19.70;35.50;;;;;;5062782;28;20027;-77
2023/05/01 08:29:11;;;;;;;5.15;3.50;;;19.70;35.90;;;;;;5064575;28;20033;-77
2023/05/01 08:31:38;;;;;;;4.55;2.70;;;19.70;35.70;;;;;;5062956;28;20031;-77
2023/05/01 08:34:05;;;;;;;3.13;1.80;;;19.80;35.50;;;;;;5062034;28;20033;-77
2023/05/01 08:36:31;;;;;;;4.80;2.20;;;19.80;34.90;;;;;;5061585;28;20029;-77
2023/05/01 08:38:57;;;;;;;2.95;2.25;;;19.80;35.30;;;;;;5061056;28;20066;-78
2023/05/01 08:41:26;;;;;;;4.07;2.30;;;19.80;35.50;;;;;;5061629;28;20017;-77
2023/05/01 08:43:52;;;;;;;6.70;2.42;;;19.80;35.30;;;;;;5061632;28;20021;-78
2023/05/01 08:46:59;;;;;;;3.30;1.95;;;19.80;35.10;;;;;;5059794;28;20024;-78
2023/05/01 08:49:27;;;;;;;3.50;2.20;;;19.80;35.30;;;;;;5051603;28;20037;-76
2023/05/01 08:51:55;;;;;;;3.75;2.30;;;19.80;35.30;;;;;;5060383;28;20104;-77
2023/05/01 08:54:23;;;;;;;6.60;2.33;;;19.80;34.80;;;;;;5062097;28;20489;-76
2023/05/01 08:56:51;;;;;;;4.90;2.60;;;19.90;35.00;;;;;;5059718;28;20025;-77
2023/05/01 08:59:18;;;;;;;5.30;2.90;;;19.80;34.70;;;;;;5060914;28;20024;-78
2023/05/01 09:01:46;;;;;;;10.05;4.22;;;19.80;35.10;;;;;;5059826;28;20496;-77
2023/05/01 09:04:13;;;;;;;5.53;2.40;;;19.90;35.60;;;;;;5061234;28;20017;-78
2023/05/01 09:06:39;;;;;;;5.65;2.83;;;19.90;35.40;;;;;;5061394;28;20485;-79
2023/05/01 09:09:05;;;;;;;4.20;2.47;;;20.00;35.20;;;;;;5063422;28;20071;-78
2023/05/01 09:11:31;;;;;;;3.13;1.98;;;20.00;34.80;;;;;;5064099;28;20478;-79
2023/05/01 09:13:59;;;;;;;4.45;2.60;;;20.00;35.20;;;;;;5063975;28;20033;-77
2023/05/01 09:16:25;;;;;;;3.72;1.88;;;20.10;35.20;;;;;;5062254;28;20040;-77
2023/05/01 09:18:53;;;;;;;5.13;2.83;;;20.20;35.30;;;;;;5063074;28;20025;-78
2023/05/01 09:21:19;;;;;;;3.67;2.17;;;20.40;35.10;;;;;;5061000;28;20025;-77
2023/05/01 09:23:45;;;;;;;3.92;1.77;;;20.50;34.40;;;;;;5061100;28;20355;-79
2023/05/01 09:26:11;;;;;;;3.35;1.95;;;20.50;34.30;;;;;;5063706;28;20021;-77
2023/05/01 09:28:41;;;;;;;4.03;2.13;;;20.60;33.60;;;;;;5064897;28;20025;-79
2023/05/01 09:31:33;;;;;;;3.83;2.15;;;20.70;34.00;;;;;;5065111;28;20052;-78
2023/05/01 09:34:04;;;;;;;8.40;2.35;;;20.80;34.90;;;;;;5067440;28;20098;-78
2023/05/01 09:36:32;;;;;;;5.38;2.65;;;20.90;33.50;;;;;;5062346;28;20414;-79
2023/05/01 09:39:00;;;;;;;6.22;1.98;;;21.00;32.80;;;;;;5066632;28;20017;-79
2023/05/01 09:41:26;;;;;;;6.43;2.00;;;21.10;33.20;;;;;;5066687;28;20020;-78
2023/05/01 09:43:54;;;;;;;2.10;1.90;;;21.20;33.60;;;;;;5064839;28;20029;-78
2023/05/01 09:46:21;;;;;;;3.97;2.30;;;21.30;33.70;;;;;;5064676;28;20081;-78
2023/05/01 09:48:58;;;;;;;7.18;2.03;;;21.30;33.60;;;;;;5065637;28;20021;-77
2023/05/01 09:51:25;;;;;;;3.28;1.67;;;21.30;32.50;;;;;;5065363;28;20017;-79
2023/05/01 09:53:53;;;;;;;2.28;1.75;;;21.30;32.70;;;;;;5064692;28;20017;-77
2023/05/01 09:56:22;;;;;;;4.28;2.10;;;21.30;33.00;;;;;;5070510;28;20012;-78
2023/05/01 09:58:52;;;;;;;3.85;2.28;;;21.30;33.40;;;;;;5070961;28;20029;-76
2023/05/01 10:01:41;;;;;;;6.28;2.33;;;21.30;33.30;;;;;;5072112;28;20100;-75
2023/05/01 10:04:08;;;;;;;3.53;1.98;;;21.30;32.80;;;;;;5066154;28;20498;-77
2023/05/01 10:06:35;;;;;;;6.20;3.35;;;21.30;32.60;;;;;;5062658;28;20024;-76
2023/05/01 10:09:02;;;;;;;5.13;2.88;;;21.30;33.40;;;;;;5064757;28;20016;-76
2023/05/01 10:11:28;;;;;;;5.47;4.03;;;21.30;33.20;;;;;;5063927;28;20077;-76
2023/05/01 10:14:08;;;;;;;6.13;3.45;;;21.40;33.40;;;;;;5064160;28;20107;-78
2023/05/01 10:16:36;;;;;;;3.28;1.90;;;21.40;33.30;;;;;;5063529;28;20171;-77
2023/05/01 10:19:02;;;;;;;6.15;2.83;;;21.40;31.80;;;;;;5064158;28;20024;-77
2023/05/01 10:21:30;;;;;;;5.10;2.75;;;21.40;32.00;;;;;;5062741;28;20017;-77
2023/05/01 10:23:57;;;;;;;4.90;3.75;;;21.40;32.60;;;;;;5062976;28;20045;-77
2023/05/01 10:26:25;;;;;;;2.88;2.20;;;21.50;33.00;;;;;;5070482;28;20483;-77
2023/05/01 10:28:51;;;;;;;4.38;2.42;;;21.60;33.50;;;;;;5064799;28;20021;-78
2023/05/01 10:31:17;;;;;;;3.35;2.10;;;21.60;32.90;;;;;;5063360;28;20040;-78
2023/05/01 10:33:46;;;;;;;3.15;2.50;;;21.60;32.90;;;;;;5061579;28;20114;-77
2023/05/01 10:36:43;;;;;;;4.80;2.70;;;21.70;33.50;;;;;;5063151;28;20174;-77
2023/05/01 10:39:29;;;;;;;3.20;2.28;;;21.80;33.50;;;;;;5061676;28;20500;-78
2023/05/01 10:42:07;;;;;;;3.20;2.25;;;21.90;33.90;;;;;;5061647;28;20013;-76
2023/05/01 10:44:34;;;;;;;3.80;2.30;;;21.90;33.80;;;;;;5064867;28;20025;-77
2023/05/01 10:47:23;;;;;;;4.28;3.10;;;22.00;33.50;;;;;;5062211;28;20486;-77
2023/05/01 10:50:11;;;;;;;4.03;2.20;;;22.10;33.10;;;;;;5063394;28;20032;-77
2023/05/01 10:53:11;;;;;;;3.92;2.35;;;22.10;31.40;;;;;;5064654;28;20093;-77
2023/05/01 10:55:38;;;;;;;2.67;2.10;;;22.20;31.50;;;;;;5063917;28;20031;-77
2023/05/01 10:58:05;;;;;;;2.33;1.90;;;22.20;31.60;;;;;;5064131;28;20027;-77
2023/05/01 11:00:32;;;;;;;6.18;2.80;;;22.20;31.90;;;;;;5064506;28;20432;-77
2023/05/01 11:03:22;;;;;;;2.97;2.40;;;22.20;32.30;;;;;;5061234;28;20055;-78
2023/05/01 11:06:08;;;;;;;6.53;2.78;;;22.20;32.70;;;;;;5064812;28;20485;-78
2023/05/01 11:08:39;;;;;;;3.72;2.17;;;22.20;32.60;;;;;;5064367;28;20028;-78
2023/05/01 11:11:22;;;;;;;3.50;2.47;;;22.30;33.00;;;;;;5065089;28;20017;-77
2023/05/01 11:14:04;;;;;;;4.22;2.70;;;22.40;33.30;;;;;;5063276;28;20099;-77
2023/05/01 11:16:42;;;;;;;6.70;3.60;;;22.40;31.50;;;;;;5068053;28;20032;-77
2023/05/01 11:19:39;;;;;;;6.15;3.55;;;22.50;31.70;;;;;;5059339;28;20029;-78
2023/05/01 11:22:12;;;;;;;8.02;4.15;;;22.60;31.90;;;;;;5059322;28;20024;-77
2023/05/01 11:24:38;;;;;;;3.13;2.10;;;22.70;31.60;;;;;;5064527;28;20041;-77
2023/05/01 11:27:05;;;;;;;2.90;1.70;;;22.80;31.80;;;;;;5063094;28;20028;-78
2023/05/01 11:29:34;;;;;;;4.30;2.10;;;22.80;31.90;;;;;;5061121;28;20172;-78
2023/05/01 11:32:00;;;;;;;4.10;2.10;;;22.90;31.40;;;;;;5064701;28;20031;-78
2023/05/01 11:34:26;;;;;;;8.75;2.08;;;23.00;31.40;;;;;;5062324;28;20048;-76
2023/05/01 11:36:52;;;;;;;4.25;2.95;;;23.10;30.70;;;;;;5068916;28;20096;-76
2023/05/01 11:39:19;;;;;;;5.45;2.97;;;23.20;31.00;;;;;;5063282;28;20032;-77
2023/05/01 11:42:05;;;;;;;3.60;1.83;;;23.30;30.50;;;;;;5060791;28;20374;-77
2023/05/01 11:44:32;;;;;;;4.13;1.98;;;23.50;30.00;;;;;;5063988;28;20028;-77
2023/05/01 11:46:57;;;;;;;2.75;2.20;;;23.50;29.80;;;;;;5061551;28;20021;-77
2023/05/01 11:49:30;;;;;;;2.78;2.00;;;23.70;30.50;;;;;;5063493;28;20029;-77
2023/05/01 11:51:57;;;;;;;2.75;2.00;;;23.70;30.20;;;;;;5062425;28;20031;-77
2023/05/01 11:54:23;;;;;;;3.90;1.73;;;23.80;29.80;;;;;;5063007;28;20025;-77
2023/05/01 11:56:58;;;;;;;3.70;1.98;;;23.80;29.20;;;;;;5063875;28;20024;-76
2023/05/01 11:59:25;;;;;;;4.05;1.85;;;23.90;29.80;;;;;;5057825;28;20091;-76
2023/05/01 12:01:51;;;;;;;3.75;1.63;;;24.00;28.50;;;;;;5063854;28;20044;-77
2023/05/01 12:04:27;;;;;;;3.50;2.00;;;24.10;28.70;;;;;;5060160;28;20021;-77
2023/05/01 12:06:53;;;;;;;7.70;4.05;;;24.20;29.60;;;;;;5061772;28;20043;-77
2023/05/01 12:09:25;;;;;;;18.23;10.63;;;24.40;29.50;;;;;;5064124;28;20094;-77
2023/05/01 12:11:52;;;;;;;14.93;3.33;;;24.50;29.50;;;;;;5060037;28;20372;-77
2023/05/01 12:14:20;;;;;;;3.92;2.40;;;24.70;28.60;;;;;;5062248;28;20032;-78
2023/05/01 12:16:47;;;;;;;3.88;2.28;;;24.70;28.40;;;;;;5060811;28;20485;-76
2023/05/01 12:19:14;;;;;;;3.33;2.08;;;24.70;28.50;;;;;;5063911;28;20418;-77
2023/05/01 12:21:40;;;;;;;2.97;1.98;;;24.70;28.50;;;;;;5061827;28;20535;-76
2023/05/01 12:24:16;;;;;;;3.83;2.15;;;24.70;28.80;;;;;;5062750;28;20060;-76
2023/05/01 12:26:45;;;;;;;7.90;4.93;;;24.70;28.70;;;;;;5062702;28;20025;-77
2023/05/01 12:29:11;;;;;;;4.57;3.00;;;24.80;29.30;;;;;;5059858;28;20039;-76
2023/05/01 12:31:46;;;;;;;11.77;6.68;;;24.90;28.90;;;;;;5060024;28;20381;-77
2023/05/01 12:34:12;;;;;;;5.30;2.95;;;25.00;29.20;;;;;;5061228;28;20017;-77
2023/05/01 12:36:38;;;;;;;6.30;2.78;;;25.10;29.00;;;;;;5061886;28;20027;-77
2023/05/01 12:39:07;;;;;;;11.32;6.35;;;25.20;28.90;;;;;;5062593;28;20037;-77
2023/05/01 12:41:35;;;;;;;4.40;2.53;;;25.20;28.90;;;;;;5058084;28;20052;-77
2023/05/01 12:44:01;;;;;;;4.25;2.20;;;25.20;28.40;;;;;;5062575;28;20100;-77
2023/05/01 12:46:28;;;;;;;4.57;1.95;;;25.30;28.10;;;;;;5059481;28;20418;-77
2023/05/01 12:48:55;;;;;;;5.85;3.17;;;25.30;27.60;;;;;;5056743;28;20025;-77
2023/05/01 12:51:21;;;;;;;6.43;2.97;;;25.30;28.00;;;;;;5060729;28;20021;-77
2023/05/01 12:53:48;;;;;;;3.60;2.67;;;25.30;27.30;;;;;;5060710;28;20064;-77